Terminal Aerodrome Forecast
Issued by NWS

Home | Current Version | Previous Version | Text Only | Print | Product List | Glossary Off
Versions: 1 2 3 4 5 6 7 8 9 10 11 12 13 14

906
FTUS43 KOAX 042343
TAFCDR
TAF
KCDR 042343Z 0500/0524 27008KT P6SM BKN060 OVC100
     FM050400 26007KT P6SM VCSH BKN035 OVC060
     FM051000 28012KT P6SM BKN060 BKN100
     FM051700 30015KT P6SM SCT200=

USA.gov is the U.S. government's official web portal to all federal, state and local government web resources and services.